Time;durP1;ratioP1;P1;durP2;ratioP2;P2;SDS_P1;SDS_P2;PMS_P1;PMS_P2;Temp;Humidity;BMP_temperature;BMP_pressure;BME280_temperature;BME280_humidity;BME280_pressure;Samples;Min_cycle;Max_cycle;Signal;HPM_P1;HPM_P2
2021/10/17 00:00:16;;;;;;;;;141.25;135.25;14.00;52.80;;;;;;4862258;29;8872;-69
2021/10/17 00:02:44;;;;;;;;;154.50;148.75;14.10;52.50;;;;;;4862132;29;8864;-70
2021/10/17 00:05:10;;;;;;;;;145.00;138.75;14.10;52.40;;;;;;4862066;29;8908;-70
2021/10/17 00:07:37;;;;;;;;;152.25;145.00;14.00;52.50;;;;;;4861865;29;8825;-70
2021/10/17 00:10:06;;;;;;;;;137.25;133.00;13.90;52.90;;;;;;4862006;29;8797;-69
2021/10/17 00:12:33;;;;;;;;;146.25;139.25;13.90;53.00;;;;;;4861698;29;8847;-69
2021/10/17 00:14:58;;;;;;;;;147.00;144.75;14.00;52.70;;;;;;4862224;29;8817;-71
2021/10/17 00:17:24;;;;;;;;;151.75;145.00;13.90;52.50;;;;;;4861875;29;8808;-70
2021/10/17 00:19:51;;;;;;;;;155.25;151.00;13.90;52.80;;;;;;4861810;29;8823;-73
2021/10/17 00:22:16;;;;;;;;;150.75;149.75;13.90;52.70;;;;;;4862197;29;8844;-69
2021/10/17 00:24:42;;;;;;;;;193.00;178.50;13.70;52.90;;;;;;4861864;29;8814;-69
2021/10/17 00:27:08;;;;;;;;;198.50;182.00;13.70;52.60;;;;;;4861822;29;8806;-72
2021/10/17 00:29:34;;;;;;;;;195.50;182.50;13.80;52.70;;;;;;4861662;29;8806;-72
2021/10/17 00:32:00;;;;;;;;;193.75;186.75;13.80;52.30;;;;;;4861762;29;9465;-72
2021/10/17 00:34:27;;;;;;;;;186.50;183.25;13.70;52.50;;;;;;4861910;29;8821;-70
2021/10/17 00:36:53;;;;;;;;;182.25;172.50;13.60;52.50;;;;;;4861654;29;8817;-72
2021/10/17 00:39:18;;;;;;;;;161.50;158.50;13.70;52.40;;;;;;4861633;29;8806;-70
2021/10/17 00:41:46;;;;;;;;;151.50;147.25;13.70;51.90;;;;;;4861824;29;8888;-72
2021/10/17 00:44:20;;;;;;;;;167.50;146.25;13.60;52.20;;;;;;4861711;29;8798;-68
2021/10/17 00:46:47;;;;;;;;;161.75;155.75;13.50;52.20;;;;;;4861905;29;8832;-72
2021/10/17 00:49:12;;;;;;;;;151.50;146.25;13.60;52.50;;;;;;4861595;29;8817;-72
2021/10/17 00:51:40;;;;;;;;;152.75;145.00;13.50;52.60;;;;;;4861717;29;8825;-69
2021/10/17 00:54:06;;;;;;;;;125.00;120.00;13.50;52.60;;;;;;4861535;29;8845;-72
2021/10/17 00:56:32;;;;;;;;;146.75;137.50;13.60;52.30;;;;;;4861868;29;8793;-73
2021/10/17 00:58:58;;;;;;;;;136.25;130.25;13.60;52.00;;;;;;4861756;29;9452;-69
2021/10/17 01:01:23;;;;;;;;;140.75;136.25;13.50;51.80;;;;;;4861431;29;9256;-71
2021/10/17 01:03:49;;;;;;;;;124.00;118.75;13.50;53.00;;;;;;4861483;29;8801;-72
2021/10/17 01:06:15;;;;;;;;;125.00;122.25;13.40;52.00;;;;;;4861690;29;8837;-72
2021/10/17 01:08:42;;;;;;;;;114.00;110.75;13.50;52.30;;;;;;4861363;29;8796;-68
2021/10/17 01:11:09;;;;;;;;;105.00;104.50;13.40;52.30;;;;;;4861510;29;9503;-73
2021/10/17 01:13:35;;;;;;;;;113.25;110.25;13.40;52.70;;;;;;4861431;29;8847;-70
2021/10/17 01:16:00;;;;;;;;;115.50;111.50;13.50;52.40;;;;;;4861329;29;8805;-70
2021/10/17 01:18:27;;;;;;;;;110.75;109.75;13.50;52.30;;;;;;4861368;29;8888;-70
2021/10/17 01:20:53;;;;;;;;;108.25;103.75;13.50;52.20;;;;;;4863794;29;8872;-72
2021/10/17 01:23:20;;;;;;;;;106.75;106.50;13.50;52.40;;;;;;4864810;29;8793;-71
2021/10/17 01:25:47;;;;;;;;;98.25;95.50;13.50;52.30;;;;;;4864965;29;8793;-71
2021/10/17 01:28:13;;;;;;;;;94.25;92.75;13.40;52.60;;;;;;4864952;29;8885;-71
2021/10/17 01:30:39;;;;;;;;;113.00;107.75;13.30;52.70;;;;;;4864851;29;8793;-72
2021/10/17 01:33:06;;;;;;;;;107.75;104.00;13.40;52.60;;;;;;4864485;29;9435;-70
2021/10/17 01:35:32;;;;;;;;;113.50;110.75;13.30;52.50;;;;;;4864484;29;8856;-70
2021/10/17 01:37:58;;;;;;;;;117.25;113.50;13.20;52.90;;;;;;4864532;29;8786;-70
2021/10/17 01:40:24;;;;;;;;;124.75;122.50;13.20;52.70;;;;;;4864444;29;8914;-72
2021/10/17 01:42:50;;;;;;;;;135.50;130.75;13.20;52.50;;;;;;4864628;29;8833;-71
2021/10/17 01:45:16;;;;;;;;;126.50;124.75;13.20;52.30;;;;;;4863296;29;9565;-72
2021/10/17 01:47:50;;;;;;;;;131.00;124.50;13.20;52.10;;;;;;4864360;29;8797;-73
2021/10/17 01:50:16;;;;;;;;;122.50;119.25;13.20;52.30;;;;;;4864234;29;8897;-73
2021/10/17 01:52:42;;;;;;;;;131.00;122.00;13.20;52.20;;;;;;4864633;29;8829;-70
2021/10/17 01:55:08;;;;;;;;;131.50;128.00;13.20;51.90;;;;;;4864404;29;9488;-70
2021/10/17 01:57:34;;;;;;;;;153.75;145.25;13.30;51.90;;;;;;4864051;29;8797;-72
2021/10/17 02:00:00;;;;;;;;;140.50;131.25;13.30;51.80;;;;;;4864116;29;8782;-71
2021/10/17 02:02:26;;;;;;;;;121.50;117.50;13.30;52.00;;;;;;4864406;29;8844;-73
2021/10/17 02:04:52;;;;;;;;;155.00;148.00;13.30;51.70;;;;;;4864205;29;8813;-70
2021/10/17 02:07:18;;;;;;;;;142.25;135.50;13.30;52.10;;;;;;4864012;29;8802;-71
2021/10/17 02:09:44;;;;;;;;;135.00;130.00;13.20;52.10;;;;;;4864237;29;8812;-71
2021/10/17 02:12:10;;;;;;;;;145.50;141.25;13.20;52.00;;;;;;4863776;29;8845;-71
2021/10/17 02:14:37;;;;;;;;;144.75;143.75;13.20;52.00;;;;;;4864122;29;8817;-70
2021/10/17 02:17:05;;;;;;;;;151.50;147.00;13.10;52.00;;;;;;4863824;29;8786;-71
2021/10/17 02:19:31;;;;;;;;;167.25;161.25;13.10;51.90;;;;;;4863877;29;8912;-70
2021/10/17 02:21:57;;;;;;;;;155.25;152.00;13.10;51.90;;;;;;4863789;29;8825;-71
2021/10/17 02:24:23;;;;;;;;;151.50;144.75;13.10;51.90;;;;;;4863369;29;8859;-69
2021/10/17 02:26:49;;;;;;;;;136.75;131.50;13.10;51.80;;;;;;4863939;29;9491;-70
2021/10/17 02:29:15;;;;;;;;;155.25;150.00;13.00;51.90;;;;;;4863554;29;8806;-72
2021/10/17 02:31:41;;;;;;;;;150.75;147.50;13.10;51.90;;;;;;4862327;29;8824;-72
2021/10/17 02:34:07;;;;;;;;;150.50;140.25;13.00;52.00;;;;;;4863376;29;8864;-69
2021/10/17 02:36:32;;;;;;;;;151.25;145.25;13.00;51.80;;;;;;4863576;29;8790;-72
2021/10/17 02:38:58;;;;;;;;;137.75;131.75;13.00;51.70;;;;;;4863422;29;9448;-71
2021/10/17 02:41:24;;;;;;;;;139.00;132.75;13.00;52.00;;;;;;4863647;29;8798;-71
2021/10/17 02:43:50;;;;;;;;;122.00;119.00;13.00;52.10;;;;;;4863655;29;8805;-72
2021/10/17 02:46:16;;;;;;;;;142.50;136.50;13.10;52.10;;;;;;4863348;29;9734;-72
2021/10/17 02:48:42;;;;;;;;;111.00;105.50;12.90;52.40;;;;;;4863506;29;8801;-71
2021/10/17 02:51:08;;;;;;;;;105.25;102.25;12.90;52.90;;;;;;4863201;29;8836;-71
2021/10/17 02:53:34;;;;;;;;;123.00;120.25;12.90;52.50;;;;;;4863032;29;8809;-69
2021/10/17 02:56:00;;;;;;;;;121.25;119.50;13.00;52.20;;;;;;4863376;29;8790;-73
2021/10/17 02:58:26;;;;;;;;;105.25;102.00;13.10;52.00;;;;;;4863046;29;8882;-70
2021/10/17 03:00:52;;;;;;;;;113.00;110.25;13.00;52.00;;;;;;4863008;29;8856;-71
2021/10/17 03:03:18;;;;;;;;;113.50;108.00;13.00;52.00;;;;;;4863198;29;8793;-71
2021/10/17 03:05:44;;;;;;;;;122.00;118.25;12.90;52.30;;;;;;4862945;29;8809;-69
2021/10/17 03:08:09;;;;;;;;;131.75;125.50;13.00;51.90;;;;;;4862925;29;8814;-71
2021/10/17 03:10:35;;;;;;;;;127.25;123.00;13.10;51.60;;;;;;4862629;29;8829;-72
2021/10/17 03:13:01;;;;;;;;;122.25;118.75;13.10;51.60;;;;;;4862917;29;8801;-71
2021/10/17 03:15:27;;;;;;;;;120.25;118.25;13.10;51.60;;;;;;4862718;29;8809;-71
2021/10/17 03:17:54;;;;;;;;;125.50;119.50;13.10;51.60;;;;;;4862957;29;8901;-71
2021/10/17 03:20:21;;;;;;;;;117.75;112.75;13.10;51.80;;;;;;4862665;29;8805;-70
2021/10/17 03:22:47;;;;;;;;;104.50;102.50;13.10;51.70;;;;;;4862930;29;8969;-69
2021/10/17 03:25:13;;;;;;;;;100.75;99.75;13.20;51.60;;;;;;4862678;29;8908;-72
2021/10/17 03:27:38;;;;;;;;;90.75;84.50;13.20;51.40;;;;;;4861576;29;8797;-69
2021/10/17 03:30:06;;;;;;;;;94.00;87.00;13.20;51.50;;;;;;4862539;29;8912;-70
2021/10/17 03:32:32;;;;;;;;;97.75;92.25;13.20;51.50;;;;;;4862820;29;8895;-72
2021/10/17 03:34:58;;;;;;;;;93.75;86.00;13.20;51.50;;;;;;4862388;29;8912;-70
2021/10/17 03:37:24;;;;;;;;;91.50;81.75;13.10;51.50;;;;;;4862667;29;8985;-72
2021/10/17 03:39:50;;;;;;;;;84.00;72.00;13.10;51.10;;;;;;4862339;29;8817;-72
2021/10/17 03:42:15;;;;;;;;;84.75;74.25;13.10;51.50;;;;;;4862137;29;8816;-70
2021/10/17 03:44:41;;;;;;;;;83.00;72.00;13.20;51.30;;;;;;4862324;29;8801;-69
2021/10/17 03:47:07;;;;;;;;;79.00;66.00;13.20;51.60;;;;;;4862566;29;8909;-71
2021/10/17 03:49:33;;;;;;;;;71.75;58.50;13.30;52.20;;;;;;4862229;29;8802;-72
2021/10/17 03:51:59;;;;;;;;;73.75;60.50;13.20;52.90;;;;;;4862678;29;8836;-72
2021/10/17 03:54:25;;;;;;;;;63.75;53.25;13.30;53.10;;;;;;4862143;29;8825;-72
2021/10/17 03:56:51;;;;;;;;;69.00;57.25;12.90;53.20;;;;;;4862200;29;8817;-72
2021/10/17 03:59:17;;;;;;;;;70.75;57.00;13.00;53.90;;;;;;4862370;29;8821;-71
2021/10/17 04:01:43;;;;;;;;;71.75;59.50;13.00;54.00;;;;;;4862345;29;8807;-72
2021/10/17 04:04:09;;;;;;;;;68.25;57.25;13.00;54.10;;;;;;4862085;29;8801;-70
2021/10/17 04:06:36;;;;;;;;;76.50;62.00;13.00;53.90;;;;;;4862084;29;8781;-71
2021/10/17 04:09:03;;;;;;;;;71.00;59.00;13.10;53.90;;;;;;4862054;29;8798;-72
2021/10/17 04:11:29;;;;;;;;;65.50;55.50;13.10;53.80;;;;;;4861800;29;8836;-69
2021/10/17 04:13:55;;;;;;;;;70.75;58.00;13.10;53.70;;;;;;4861874;29;8829;-69
2021/10/17 04:16:20;;;;;;;;;67.75;57.00;13.10;54.60;;;;;;4862168;29;8805;-70
2021/10/17 04:18:46;;;;;;;;;67.25;56.50;13.20;53.60;;;;;;4861891;29;8782;-70
2021/10/17 04:21:12;;;;;;;;;68.00;56.50;13.10;54.50;;;;;;4861813;29;8806;-72
2021/10/17 04:23:38;;;;;;;;;59.00;50.50;13.20;53.70;;;;;;4861883;29;8797;-72
2021/10/17 04:26:04;;;;;;;;;63.00;53.00;12.80;53.80;;;;;;4861861;29;8805;-72
2021/10/17 04:28:30;;;;;;;;;61.00;51.25;12.70;54.60;;;;;;4861789;29;8935;-72
2021/10/17 04:30:55;;;;;;;;;66.50;56.00;12.80;55.70;;;;;;4861773;29;8989;-72
2021/10/17 04:33:21;;;;;;;;;71.00;58.00;12.60;55.00;;;;;;4861954;29;8790;-72
2021/10/17 04:35:47;;;;;;;;;74.00;61.25;12.70;54.50;;;;;;4861735;29;8906;-72
2021/10/17 04:38:14;;;;;;;;;71.00;58.25;12.70;54.70;;;;;;4861785;29;8794;-70
2021/10/17 04:40:41;;;;;;;;;71.50;59.00;12.80;54.30;;;;;;4861661;29;8790;-71
2021/10/17 04:43:07;;;;;;;;;68.75;58.00;12.90;54.40;;;;;;4861684;29;8797;-73
2021/10/17 04:45:37;;;;;;;;;70.50;58.25;12.80;54.20;;;;;;4861750;29;9467;-69
2021/10/17 04:48:06;;;;;;;;;62.50;53.50;12.80;54.30;;;;;;4862123;29;9507;-70
2021/10/17 04:50:32;;;;;;;;;71.00;57.25;12.70;54.40;;;;;;4861916;29;8812;-71
2021/10/17 04:52:57;;;;;;;;;73.50;60.25;12.80;54.40;;;;;;4862002;29;8793;-72
2021/10/17 04:55:23;;;;;;;;;77.00;62.00;12.70;54.00;;;;;;4864978;29;8828;-68
2021/10/17 04:57:49;;;;;;;;;86.00;69.75;12.70;54.40;;;;;;4867671;29;8801;-68
2021/10/17 05:00:15;;;;;;;;;57.00;47.75;12.50;54.10;;;;;;4867663;29;8817;-71
2021/10/17 05:02:41;;;;;;;;;76.50;63.00;12.40;55.00;;;;;;4867697;29;8804;-73
2021/10/17 05:05:07;;;;;;;;;78.25;63.50;12.50;54.90;;;;;;4865659;29;8809;-72
2021/10/17 05:07:33;;;;;;;;;79.75;65.00;12.50;55.00;;;;;;4865438;29;8936;-70
2021/10/17 05:09:59;;;;;;;;;76.25;61.75;12.60;55.20;;;;;;4865238;29;8801;-71
2021/10/17 05:12:25;;;;;;;;;81.25;66.25;12.60;55.00;;;;;;4864829;29;8857;-73
2021/10/17 05:14:51;;;;;;;;;80.75;65.75;12.70;54.60;;;;;;4864898;29;8905;-69
2021/10/17 05:17:17;;;;;;;;;66.75;56.00;12.70;54.50;;;;;;4865239;29;8989;-71
2021/10/17 05:19:43;;;;;;;;;79.00;65.25;12.60;54.70;;;;;;4864802;29;9401;-73
2021/10/17 05:22:09;;;;;;;;;78.00;64.75;12.50;54.80;;;;;;4865176;29;8837;-72
2021/10/17 05:24:34;;;;;;;;;75.25;62.00;12.60;54.80;;;;;;4864651;29;8885;-67
2021/10/17 05:27:00;;;;;;;;;74.00;61.00;12.50;54.90;;;;;;4864662;29;8809;-70
2021/10/17 05:29:26;;;;;;;;;79.25;64.75;12.60;54.70;;;;;;4864588;29;8818;-72
2021/10/17 05:31:52;;;;;;;;;71.50;59.25;12.70;54.60;;;;;;4864541;29;8825;-70
2021/10/17 05:34:18;;;;;;;;;75.25;61.50;12.70;54.70;;;;;;4864542;29;8829;-72
2021/10/17 05:36:44;;;;;;;;;63.25;53.00;12.60;54.70;;;;;;4863409;29;8864;-70
2021/10/17 05:39:10;;;;;;;;;74.75;61.25;12.60;54.50;;;;;;4864711;29;8802;-70
2021/10/17 05:41:36;;;;;;;;;67.25;56.00;12.80;54.70;;;;;;4864460;29;8876;-71
2021/10/17 05:44:02;;;;;;;;;58.50;48.50;12.90;54.40;;;;;;4864376;29;8810;-71
2021/10/17 05:46:28;;;;;;;;;58.00;49.50;12.90;54.30;;;;;;4864325;29;8893;-73
2021/10/17 05:48:54;;;;;;;;;65.50;55.25;12.70;54.60;;;;;;4864341;29;8793;-73
2021/10/17 05:51:20;;;;;;;;;67.00;55.75;12.80;55.00;;;;;;4864327;29;8829;-72
2021/10/17 05:53:46;;;;;;;;;62.75;52.75;12.90;55.00;;;;;;4864023;29;8833;-73
2021/10/17 05:56:12;;;;;;;;;68.50;57.50;12.70;55.10;;;;;;4864417;29;8812;-69
2021/10/17 05:58:38;;;;;;;;;67.25;55.50;12.70;55.50;;;;;;4864120;29;8801;-71
2021/10/17 06:01:03;;;;;;;;;67.75;56.00;12.60;55.80;;;;;;4864117;29;8987;-70
2021/10/17 06:03:30;;;;;;;;;70.75;58.50;12.80;56.00;;;;;;4863993;29;8813;-70
2021/10/17 06:06:02;;;;;;;;;72.75;60.50;13.00;55.80;;;;;;4863717;29;8813;-70
2021/10/17 06:08:32;;;;;;;;;75.75;60.00;13.10;55.30;;;;;;4863951;29;8821;-70
2021/10/17 06:10:58;;;;;;;;;72.75;59.25;13.30;54.70;;;;;;4863814;29;8813;-72
2021/10/17 06:13:24;;;;;;;;;67.00;55.50;13.40;54.60;;;;;;4863830;29;8840;-70
2021/10/17 06:15:49;;;;;;;;;75.50;61.50;13.40;54.40;;;;;;4863829;29;8817;-72
2021/10/17 06:18:16;;;;;;;;;71.25;58.50;13.50;54.30;;;;;;4863742;29;8868;-71
2021/10/17 06:20:41;;;;;;;;;71.75;59.00;13.50;54.30;;;;;;4863700;29;8813;-70
2021/10/17 06:23:07;;;;;;;;;70.00;57.25;13.50;54.20;;;;;;4864004;29;8821;-72
2021/10/17 06:25:33;;;;;;;;;77.25;63.25;13.60;54.20;;;;;;4863699;29;8801;-70
2021/10/17 06:28:01;;;;;;;;;87.50;79.00;13.70;54.00;;;;;;4862979;29;9437;-69
2021/10/17 06:30:27;;;;;;;;;88.00;74.50;13.80;53.90;;;;;;4862807;29;8903;-68
2021/10/17 06:32:53;;;;;;;;;95.00;93.00;13.80;53.80;;;;;;4863225;29;8778;-69
2021/10/17 06:35:19;;;;;;;;;109.25;102.50;13.80;54.80;;;;;;4863439;29;8813;-70
2021/10/17 06:37:44;;;;;;;;;84.25;75.50;13.90;53.80;;;;;;4863447;29;8900;-69
2021/10/17 06:40:11;;;;;;;;;79.25;67.00;13.80;53.70;;;;;;4863403;29;8813;-64
2021/10/17 06:42:37;;;;;;;;;64.00;54.00;13.80;54.70;;;;;;4863422;29;9523;-64
2021/10/17 06:45:03;;;;;;;;;60.00;50.00;13.60;55.40;;;;;;4863239;29;8919;-63
2021/10/17 06:47:29;;;;;;;;;68.00;56.00;13.70;55.20;;;;;;4863601;29;8802;-63
2021/10/17 06:49:55;;;;;;;;;62.75;53.00;13.80;55.30;;;;;;4863085;29;8813;-63
2021/10/17 06:52:21;;;;;;;;;66.50;55.00;13.60;55.40;;;;;;4863529;29;8833;-63
2021/10/17 06:54:46;;;;;;;;;66.50;55.00;13.60;56.20;;;;;;4863081;29;8856;-63
2021/10/17 06:57:12;;;;;;;;;64.50;53.25;13.80;56.20;;;;;;4863135;29;8782;-64
2021/10/17 06:59:38;;;;;;;;;65.00;55.00;13.80;56.00;;;;;;4862913;29;8810;-63
2021/10/17 07:02:04;;;;;;;;;62.75;52.00;13.70;56.50;;;;;;4862725;29;8794;-63
2021/10/17 07:04:30;;;;;;;;;65.50;55.00;13.80;56.90;;;;;;4863043;29;8782;-64
2021/10/17 07:06:56;;;;;;;;;64.75;54.25;13.90;56.70;;;;;;4863224;29;8847;-64
2021/10/17 07:09:22;;;;;;;;;67.75;56.25;14.00;56.80;;;;;;4862881;29;8820;-64
2021/10/17 07:11:48;;;;;;;;;60.75;51.00;13.90;57.30;;;;;;4862442;29;8926;-64
2021/10/17 07:14:14;;;;;;;;;57.25;48.75;14.00;57.30;;;;;;4862764;29;8817;-63
2021/10/17 07:16:40;;;;;;;;;62.25;51.25;14.20;56.90;;;;;;4863052;29;8828;-65
2021/10/17 07:19:06;;;;;;;;;57.75;49.75;14.30;56.70;;;;;;4862063;29;8829;-63
2021/10/17 07:21:31;;;;;;;;;53.00;46.00;14.30;56.20;;;;;;4861784;29;8809;-64
2021/10/17 07:23:57;;;;;;;;;52.25;45.50;14.30;55.80;;;;;;4862586;29;8817;-63
2021/10/17 07:26:23;;;;;;;;;50.25;43.75;14.00;55.90;;;;;;4862310;29;8936;-64
2021/10/17 07:28:49;;;;;;;;;54.75;47.00;13.70;56.50;;;;;;4862802;29;8809;-64
2021/10/17 07:31:15;;;;;;;;;52.00;44.00;13.80;57.20;;;;;;4862558;29;8809;-64
2021/10/17 07:33:40;;;;;;;;;54.50;46.75;13.80;57.60;;;;;;4861701;29;8907;-64
2021/10/17 07:36:07;;;;;;;;;48.50;42.00;14.10;57.30;;;;;;4861179;29;8888;-64
2021/10/17 07:38:33;;;;;;;;;52.25;45.50;14.20;56.70;;;;;;4861787;29;8896;-63
2021/10/17 07:40:59;;;;;;;;;56.25;47.50;14.20;57.40;;;;;;4861535;29;8801;-63
2021/10/17 07:43:25;;;;;;;;;52.75;45.75;14.40;57.20;;;;;;4861855;29;8805;-64
2021/10/17 07:45:51;;;;;;;;;55.75;46.75;14.20;57.40;;;;;;4861746;29;8824;-64
2021/10/17 07:48:17;;;;;;;;;53.75;46.25;14.50;57.50;;;;;;4861775;29;8903;-64
2021/10/17 07:50:43;;;;;;;;;54.00;46.00;14.80;56.40;;;;;;4861870;29;8864;-64
2021/10/17 07:53:09;;;;;;;;;58.00;50.00;14.90;56.00;;;;;;4861871;29;8809;-64
2021/10/17 07:55:35;;;;;;;;;56.25;48.25;14.70;56.50;;;;;;4861664;29;8817;-64
2021/10/17 07:58:01;;;;;;;;;55.75;46.50;14.80;56.40;;;;;;4861542;29;8790;-66
2021/10/17 08:00:30;;;;;;;;;54.50;47.25;14.90;56.10;;;;;;4861745;29;8810;-65
2021/10/17 08:02:57;;;;;;;;;57.00;49.00;14.80;56.40;;;;;;4861779;29;8825;-63
2021/10/17 08:05:23;;;;;;;;;53.75;45.50;15.10;56.00;;;;;;4861927;29;8816;-62
2021/10/17 08:07:49;;;;;;;;;49.75;43.00;15.20;55.50;;;;;;4861995;29;8806;-62
2021/10/17 08:10:15;;;;;;;;;57.50;49.00;15.20;55.90;;;;;;4862004;29;8809;-64
2021/10/17 08:12:42;;;;;;;;;61.25;50.50;15.20;56.00;;;;;;4861661;29;8944;-65
2021/10/17 08:15:09;;;;;;;;;57.50;49.50;15.50;55.30;;;;;;4861251;29;8817;-65
2021/10/17 08:17:35;;;;;;;;;52.00;44.25;15.80;54.70;;;;;;4861535;29;8801;-65
2021/10/17 08:20:01;;;;;;;;;53.25;45.50;15.60;54.90;;;;;;4861443;29;8877;-64
2021/10/17 08:22:27;;;;;;;;;48.00;41.50;15.40;55.80;;;;;;4861071;29;9449;-64
2021/10/17 08:24:53;;;;;;;;;54.00;46.00;15.70;55.10;;;;;;4861631;29;8812;-65
2021/10/17 08:27:19;;;;;;;;;53.75;45.50;15.70;54.30;;;;;;4860515;29;8828;-64
2021/10/17 08:29:46;;;;;;;;;52.00;44.00;15.60;54.60;;;;;;4863640;29;8817;-65
2021/10/17 08:32:12;;;;;;;;;54.00;46.00;15.70;54.40;;;;;;4865269;29;8790;-65
2021/10/17 08:34:38;;;;;;;;;55.00;47.00;15.90;54.20;;;;;;4865295;29;8841;-64
2021/10/17 08:37:04;;;;;;;;;54.75;47.00;15.90;54.00;;;;;;4865032;29;8928;-66
2021/10/17 08:39:29;;;;;;;;;48.75;42.25;16.10;53.80;;;;;;4865035;29;8893;-64
2021/10/17 08:41:55;;;;;;;;;53.00;45.75;16.30;53.20;;;;;;4864949;29;8898;-62
2021/10/17 08:44:21;;;;;;;;;56.50;47.75;16.40;52.90;;;;;;4864929;29;8819;-63
2021/10/17 08:46:47;;;;;;;;;57.25;48.00;16.30;53.10;;;;;;4864995;29;8920;-63
2021/10/17 08:49:13;;;;;;;;;58.25;49.00;16.50;52.70;;;;;;4865388;29;9574;-63
2021/10/17 08:51:39;;;;;;;;;52.00;43.25;16.50;52.00;;;;;;4865191;29;9548;-63
2021/10/17 08:54:06;;;;;;;;;53.25;46.25;16.40;52.00;;;;;;4864933;29;8828;-63
2021/10/17 08:56:33;;;;;;;;;54.50;46.50;16.40;52.50;;;;;;4864292;29;8789;-66
2021/10/17 08:58:59;;;;;;;;;56.00;47.50;16.60;52.20;;;;;;4864230;29;8789;-62
2021/10/17 09:01:33;;;;;;;;;52.33;45.67;16.80;52.00;;;;;;4865129;29;8857;-62
2021/10/17 09:04:00;;;;;;;;;49.50;42.25;16.90;51.00;;;;;;4865075;29;9464;-63
2021/10/17 09:06:29;;;;;;;;;52.00;43.50;17.10;50.70;;;;;;4865036;29;8904;-65
2021/10/17 09:09:07;;;;;;;;;51.00;44.00;17.10;50.20;;;;;;4864937;29;8826;-63
2021/10/17 09:11:41;;;;;;;;;53.00;46.00;17.20;50.50;;;;;;4864124;29;8833;-63
2021/10/17 09:14:27;;;;;;;;;52.75;45.00;17.10;50.40;;;;;;4864798;29;8825;-63
2021/10/17 09:16:56;;;;;;;;;55.25;46.50;17.20;50.50;;;;;;4864638;29;8797;-63
2021/10/17 09:19:31;;;;;;;;;54.50;46.25;17.20;50.60;;;;;;4864789;29;8801;-62
2021/10/17 09:22:08;;;;;;;;;53.50;45.50;17.10;49.60;;;;;;4864511;29;8932;-62
2021/10/17 09:24:42;;;;;;;;;57.25;47.00;17.00;49.80;;;;;;4864360;29;8881;-62
2021/10/17 09:27:08;;;;;;;;;53.75;46.25;17.50;49.80;;;;;;4864484;29;8919;-61
2021/10/17 09:29:35;;;;;;;;;53.50;45.50;17.70;49.20;;;;;;4864097;29;8912;-61
2021/10/17 09:32:09;;;;;;;;;55.25;46.00;17.70;48.10;;;;;;4864883;29;8836;-61
2021/10/17 09:34:35;;;;;;;;;60.25;50.50;17.60;48.30;;;;;;4864600;29;8837;-62
2021/10/17 09:37:09;;;;;;;;;56.00;47.25;17.80;48.60;;;;;;4864086;29;8833;-62
2021/10/17 09:39:39;;;;;;;;;56.50;48.25;17.60;47.90;;;;;;4863809;29;8935;-63
2021/10/17 09:42:07;;;;;;;;;59.50;50.00;17.80;48.40;;;;;;4862525;29;8822;-63
2021/10/17 09:44:41;;;;;;;;;61.50;51.75;17.80;48.40;;;;;;4863962;29;8825;-63
2021/10/17 09:47:08;;;;;;;;;60.25;50.25;18.00;48.30;;;;;;4863284;29;8915;-62
2021/10/17 09:49:35;;;;;;;;;55.00;46.75;18.20;48.00;;;;;;4863840;29;8790;-62
2021/10/17 09:52:16;;;;;;;;;53.50;44.75;18.30;47.30;;;;;;4864279;29;8829;-62
2021/10/17 09:54:45;;;;;;;;;58.75;48.50;18.60;46.60;;;;;;4864260;29;8839;-62
2021/10/17 09:57:11;;;;;;;;;59.50;49.75;18.80;46.50;;;;;;4864663;29;9484;-62
2021/10/17 09:59:37;;;;;;;;;68.25;56.00;19.10;46.40;;;;;;4864461;29;8812;-63
2021/10/17 10:02:14;;;;;;;;;61.50;50.25;19.70;45.70;;;;;;4864367;29;8785;-63
2021/10/17 10:04:44;;;;;;;;;58.75;49.25;20.20;43.60;;;;;;4864306;29;8833;-62
2021/10/17 10:07:14;;;;;;;;;56.00;47.00;21.20;40.50;;;;;;4864002;29;8818;-62
2021/10/17 10:09:47;;;;;;;;;53.33;44.67;25.90;33.90;;;;;;4863560;29;8788;-62
2021/10/17 10:12:17;;;;;;;;;49.67;42.00;30.00;28.20;;;;;;4863587;29;8849;-63
2021/10/17 10:14:44;;;;;;;;;53.67;44.67;32.00;25.90;;;;;;4863982;29;9568;-61
2021/10/17 10:17:10;;;;;;;;;52.00;43.67;34.00;24.00;;;;;;4863855;29;8788;-61
2021/10/17 10:19:38;;;;;;;;;50.00;42.33;35.20;22.60;;;;;;4863669;29;8798;-62
2021/10/17 10:22:04;;;;;;;;;43.67;37.00;36.60;21.20;;;;;;4863838;29;8817;-62
2021/10/17 10:24:32;;;;;;;;;30.00;29.00;37.10;20.40;;;;;;4863218;29;8793;-62
2021/10/17 10:26:58;;;;;;;;;41.67;35.67;38.30;19.30;;;;;;4863347;29;8809;-62
2021/10/17 10:29:32;;;;;;;;;41.67;36.33;37.50;18.50;;;;;;4863207;29;11609;-62
2021/10/17 10:32:00;;;;;;;;;41.00;36.33;38.90;18.70;;;;;;4863106;29;11628;-62
2021/10/17 10:34:32;;;;;;;;;38.67;34.67;40.30;18.30;;;;;;4863411;29;8841;-64
2021/10/17 10:37:13;;;;;;;;;43.00;36.67;40.70;17.30;;;;;;4863036;29;8813;-63
2021/10/17 10:39:59;;;;;;;;;42.33;36.00;41.00;16.90;;;;;;4862584;29;8921;-64
2021/10/17 10:42:32;;;;;;;;;42.00;35.67;41.90;16.90;;;;;;4863167;29;8798;-61
2021/10/17 10:45:29;;;;;;;;;41.00;35.00;42.80;16.50;;;;;;4863262;29;8793;-61
2021/10/17 10:48:10;;;;;;;;;32.00;29.33;42.90;15.50;;;;;;4863719;29;9731;-62
2021/10/17 10:50:45;;;;;;;;;30.00;29.00;43.20;16.00;;;;;;4863076;29;8805;-63
2021/10/17 10:53:12;;;;;;;;;36.33;32.33;43.00;15.50;;;;;;4860915;29;11631;-62
2021/10/17 10:55:43;;;;;;;;;34.67;31.00;43.50;15.50;;;;;;4861916;29;11720;-63
2021/10/17 10:58:26;;;;;;;;;34.00;30.67;43.10;14.60;;;;;;4862629;29;11633;-64
2021/10/17 11:00:55;;;;;;;;;37.00;32.67;43.00;14.90;;;;;;4862536;29;11640;-63
2021/10/17 11:03:24;;;;;;;;;29.75;28.50;43.60;15.60;;;;;;4862946;29;11651;-63
2021/10/17 11:06:05;;;;;;;;;28.33;27.67;43.80;14.10;;;;;;4862582;29;11643;-63
2021/10/17 11:08:32;;;;;;;;;35.00;30.67;44.00;14.20;;;;;;4862939;29;11654;-63
2021/10/17 11:10:58;;;;;;;;;37.33;34.00;44.50;14.20;;;;;;4862712;29;11653;-63
2021/10/17 11:13:35;;;;;;;;;35.00;31.67;44.50;13.60;;;;;;4862538;29;11656;-63
2021/10/17 11:16:03;;;;;;;;;32.00;29.33;43.80;13.80;;;;;;4862692;29;9461;-63
2021/10/17 11:18:32;;;;;;;;;33.67;31.00;42.50;13.60;;;;;;4862460;29;11711;-63
2021/10/17 11:20:59;;;;;;;;;36.00;32.00;43.00;14.50;;;;;;4862415;29;8825;-63
2021/10/17 11:23:28;;;;;;;;;38.00;33.33;44.30;14.40;;;;;;4862745;29;11746;-64
2021/10/17 11:25:59;;;;;;;;;33.00;30.00;45.00;14.10;;;;;;4862531;29;8805;-63
2021/10/17 11:28:28;;;;;;;;;31.67;30.00;45.00;13.80;;;;;;4862651;29;12319;-63
2021/10/17 11:31:01;;;;;;;;;33.33;30.33;45.50;13.50;;;;;;4862520;29;11636;-63
2021/10/17 11:33:27;;;;;;;;;34.33;31.00;45.70;13.50;;;;;;4862496;29;11751;-62
2021/10/17 11:35:55;;;;;;;;;35.00;31.67;45.30;12.70;;;;;;4862375;29;8878;-64
2021/10/17 11:38:22;;;;;;;;;31.33;29.00;44.70;12.70;;;;;;4862365;29;8809;-63
2021/10/17 11:40:47;;;;;;;;;28.67;28.00;45.30;13.30;;;;;;4862411;29;11624;-63
2021/10/17 11:43:14;;;;;;;;;27.67;27.67;44.70;13.20;;;;;;4862233;29;11667;-63
2021/10/17 11:45:43;;;;;;;;;32.00;30.00;44.50;12.80;;;;;;4862623;29;9526;-63
2021/10/17 11:48:18;;;;;;;;;30.33;28.33;45.30;12.80;;;;;;4862265;29;11717;-63
2021/10/17 11:50:48;;;;;;;;;24.67;24.67;46.00;13.10;;;;;;4862334;29;12312;-63
2021/10/17 11:53:17;;;;;;;;;32.67;30.67;46.30;12.50;;;;;;4862141;29;11509;-63
2021/10/17 11:55:49;;;;;;;;;27.50;27.25;46.10;12.70;;;;;;4862398;29;11645;-63
2021/10/17 11:58:23;;;;;;;;;27.00;26.00;46.10;12.70;;;;;;4862232;29;12276;-64
2021/10/17 12:00:51;;;;;;;;;28.25;27.75;46.10;12.30;;;;;;4862073;29;11624;-65
2021/10/17 12:03:19;;;;;;;;;32.00;30.33;45.40;12.40;;;;;;4861856;29;12348;-64
2021/10/17 12:05:46;;;;;;;;;30.00;28.33;45.70;12.80;;;;;;4861717;29;11734;-63
2021/10/17 12:08:24;;;;;;;;;26.00;26.00;45.90;12.90;;;;;;4861766;29;11743;-63
2021/10/17 12:11:11;;;;;;;;;29.33;28.00;45.10;12.60;;;;;;4861414;29;11782;-63
2021/10/17 12:13:49;;;;;;;;;21.75;21.75;44.90;12.70;;;;;;4862036;29;11891;-63
2021/10/17 12:16:20;;;;;;;;;27.00;26.00;45.30;13.00;;;;;;4861642;29;11662;-64
2021/10/17 12:18:49;;;;;;;;;28.75;28.00;45.60;12.90;;;;;;4861671;29;11689;-63
2021/10/17 12:21:26;;;;;;;;;27.75;26.25;45.90;12.70;;;;;;4861811;29;11639;-63
2021/10/17 12:23:53;;;;;;;;;28.67;27.67;46.20;12.50;;;;;;4861900;29;12468;-64
2021/10/17 12:26:28;;;;;;;;;30.33;28.00;46.20;12.40;;;;;;4861921;29;12340;-64
2021/10/17 12:29:11;;;;;;;;;28.25;27.00;45.70;12.20;;;;;;4861712;29;11698;-65
2021/10/17 12:31:50;;;;;;;;;27.33;27.00;45.90;12.80;;;;;;4861660;29;11650;-64